Time;durP1;ratioP1;P1;durP2;ratioP2;P2;SDS_P1;SDS_P2;PMS_P1;PMS_P2;Temp;Humidity;BMP_temperature;BMP_pressure;BME280_temperature;BME280_humidity;BME280_pressure;Samples;Min_cycle;Max_cycle;Signal;HPM_P1;HPM_P2
2022/04/15 00:00:09;;;;;;;15.13;8.63;;;15.90;51.60;;;;;;4982153;28;20062;-45
2022/04/15 00:02:37;;;;;;;12.73;8.38;;;16.00;51.70;;;;;;4980399;28;20050;-42
2022/04/15 00:05:29;;;;;;;12.95;9.30;;;15.90;51.70;;;;;;4981380;28;20064;-43
2022/04/15 00:07:56;;;;;;;14.90;10.00;;;15.90;51.80;;;;;;4983330;28;20524;-43
2022/04/15 00:10:24;;;;;;;15.15;10.52;;;15.80;51.70;;;;;;4981689;28;20061;-43
2022/04/15 00:12:54;;;;;;;17.02;10.02;;;15.80;51.70;;;;;;4982031;28;20051;-44
2022/04/15 00:15:21;;;;;;;15.73;10.18;;;15.80;51.80;;;;;;4980414;28;20055;-43
2022/04/15 00:17:49;;;;;;;13.15;9.32;;;15.80;51.90;;;;;;4982694;28;20047;-43
2022/04/15 00:20:18;;;;;;;14.68;10.38;;;15.70;51.90;;;;;;4982103;28;20050;-43
2022/04/15 00:22:45;;;;;;;16.98;11.43;;;15.70;52.10;;;;;;4982157;28;20537;-43
2022/04/15 00:25:13;;;;;;;18.05;13.20;;;15.70;52.20;;;;;;4981721;28;20054;-43
2022/04/15 00:27:41;;;;;;;16.52;11.55;;;15.70;52.40;;;;;;4982583;28;20061;-46
2022/04/15 00:30:11;;;;;;;18.83;12.07;;;15.60;52.40;;;;;;4980824;28;20077;-43
2022/04/15 00:32:39;;;;;;;14.20;10.88;;;15.60;52.50;;;;;;4981360;28;20055;-43
2022/04/15 00:35:08;;;;;;;13.45;9.90;;;15.60;52.50;;;;;;4981869;28;20059;-43
2022/04/15 00:37:37;;;;;;;16.17;11.82;;;15.60;53.10;;;;;;4982240;28;20062;-43
2022/04/15 00:40:08;;;;;;;15.40;10.52;;;15.50;52.60;;;;;;4981805;28;20065;-44
2022/04/15 00:42:36;;;;;;;15.45;10.90;;;15.50;52.70;;;;;;4981474;28;20081;-44
2022/04/15 00:45:04;;;;;;;15.60;10.98;;;15.50;52.70;;;;;;4982175;28;20398;-44
2022/04/15 00:47:43;;;;;;;18.13;11.57;;;15.50;52.80;;;;;;4981212;28;20069;-43
2022/04/15 00:50:10;;;;;;;14.30;10.50;;;15.40;52.90;;;;;;4979881;28;20069;-44
2022/04/15 00:52:43;;;;;;;14.32;10.40;;;15.40;52.90;;;;;;4981287;28;20062;-44
2022/04/15 00:55:12;;;;;;;15.20;10.98;;;15.40;53.20;;;;;;4979902;28;20050;-44
2022/04/15 00:57:41;;;;;;;21.98;12.13;;;15.40;53.00;;;;;;4980791;28;20058;-43
2022/04/15 01:00:15;;;;;;;20.92;11.13;;;15.30;53.20;;;;;;4979749;28;20494;-43
2022/04/15 01:02:44;;;;;;;14.27;10.10;;;15.30;53.20;;;;;;4981219;28;20513;-44
2022/04/15 01:05:13;;;;;;;12.38;9.48;;;15.20;53.20;;;;;;4979510;28;20502;-43
2022/04/15 01:07:43;;;;;;;15.43;10.93;;;15.20;53.20;;;;;;4980344;28;20054;-44
2022/04/15 01:10:13;;;;;;;19.08;12.02;;;15.20;53.30;;;;;;4981512;28;20054;-43
2022/04/15 01:12:41;;;;;;;15.70;9.88;;;15.20;53.30;;;;;;4979843;28;20077;-46
2022/04/15 01:15:11;;;;;;;16.75;11.25;;;15.10;53.30;;;;;;4980830;28;20714;-43
2022/04/15 01:17:38;;;;;;;14.55;10.93;;;15.10;53.20;;;;;;4967695;28;20063;-43
2022/04/15 01:20:08;;;;;;;16.38;10.80;;;15.10;53.30;;;;;;4962006;28;20059;-43
2022/04/15 01:22:38;;;;;;;15.35;10.43;;;15.10;53.30;;;;;;4961586;28;20070;-43
2022/04/15 01:25:08;;;;;;;19.63;11.40;;;15.00;53.30;;;;;;4960885;28;20518;-43
2022/04/15 01:27:39;;;;;;;17.95;10.63;;;15.00;53.30;;;;;;4979526;28;20070;-43
2022/04/15 01:30:08;;;;;;;13.73;9.65;;;15.00;53.40;;;;;;4975978;28;20065;-43
2022/04/15 01:32:35;;;;;;;15.25;9.52;;;14.90;53.30;;;;;;4971005;28;20050;-44
2022/04/15 01:35:06;;;;;;;17.33;9.27;;;14.90;53.30;;;;;;4980927;28;20062;-43
2022/04/15 01:37:33;;;;;;;13.85;8.95;;;14.90;53.40;;;;;;4968849;28;20050;-44
2022/04/15 01:40:01;;;;;;;12.63;9.10;;;14.90;53.40;;;;;;4973879;28;20061;-43
2022/04/15 01:42:30;;;;;;;12.10;8.30;;;14.80;53.40;;;;;;4978073;28;20414;-43
2022/04/15 01:44:58;;;;;;;15.55;9.50;;;14.80;53.50;;;;;;4976328;28;20050;-44
2022/04/15 01:47:26;;;;;;;13.95;8.48;;;14.80;53.50;;;;;;4978239;28;20054;-43
2022/04/15 01:49:53;;;;;;;11.20;8.32;;;14.70;53.50;;;;;;4977176;28;20590;-43
2022/04/15 01:52:21;;;;;;;15.07;9.77;;;14.70;53.70;;;;;;4977953;28;20090;-43
2022/04/15 01:54:48;;;;;;;10.73;8.40;;;14.70;53.70;;;;;;4977577;28;20053;-46
2022/04/15 01:57:16;;;;;;;10.95;8.75;;;14.70;53.80;;;;;;4976123;28;20050;-43
2022/04/15 01:59:45;;;;;;;14.38;9.95;;;14.60;53.80;;;;;;4976467;28;20058;-43
2022/04/15 02:02:12;;;;;;;19.90;12.15;;;14.60;53.90;;;;;;4975223;28;20062;-43
2022/04/15 02:04:40;;;;;;;17.52;12.32;;;14.60;54.00;;;;;;4978417;28;20416;-44
2022/04/15 02:07:07;;;;;;;17.90;12.00;;;14.60;54.10;;;;;;4978847;28;20046;-44
2022/04/15 02:09:35;;;;;;;15.48;11.05;;;14.50;54.20;;;;;;4967956;28;20069;-43
2022/04/15 02:12:02;;;;;;;17.27;11.63;;;14.50;54.30;;;;;;4973743;28;20061;-43
2022/04/15 02:14:30;;;;;;;16.17;11.57;;;14.50;54.30;;;;;;4980045;28;20058;-43
2022/04/15 02:16:59;;;;;;;15.05;11.48;;;14.40;54.40;;;;;;4976086;28;20051;-43
2022/04/15 02:19:27;;;;;;;14.98;10.65;;;14.40;54.50;;;;;;4977784;28;20054;-43
2022/04/15 02:21:54;;;;;;;16.45;11.60;;;14.40;54.50;;;;;;4977787;28;20050;-45
2022/04/15 02:24:22;;;;;;;17.73;11.73;;;14.40;54.60;;;;;;4983559;28;20054;-43
2022/04/15 02:26:49;;;;;;;16.52;11.40;;;14.40;54.60;;;;;;4981866;28;20062;-43
2022/04/15 02:29:17;;;;;;;18.52;11.32;;;14.30;54.60;;;;;;4981973;28;20425;-43
2022/04/15 02:31:44;;;;;;;17.33;12.02;;;14.30;54.70;;;;;;4976219;28;20058;-43
2022/04/15 02:34:13;;;;;;;16.45;12.13;;;14.30;54.70;;;;;;4981409;28;20047;-43
2022/04/15 02:36:40;;;;;;;18.67;11.60;;;14.30;54.80;;;;;;4983744;28;20069;-43
2022/04/15 02:39:10;;;;;;;18.58;12.05;;;14.20;54.80;;;;;;4979436;28;20058;-43
2022/04/15 02:41:39;;;;;;;19.00;12.57;;;14.20;54.90;;;;;;4980499;28;20062;-43
2022/04/15 02:44:08;;;;;;;18.90;13.65;;;14.20;54.90;;;;;;4982480;28;20066;-43
2022/04/15 02:46:43;;;;;;;21.27;14.30;;;14.20;54.90;;;;;;4980315;28;20054;-43
2022/04/15 02:49:12;;;;;;;21.20;14.95;;;14.20;55.00;;;;;;4982860;28;20505;-49
2022/04/15 02:51:41;;;;;;;19.05;13.07;;;14.10;55.00;;;;;;4979536;28;20401;-43
2022/04/15 02:54:08;;;;;;;17.55;12.88;;;14.10;55.00;;;;;;4982417;28;20422;-43
2022/04/15 02:56:35;;;;;;;19.20;13.93;;;14.10;55.00;;;;;;4978635;28;20058;-43
2022/04/15 02:59:03;;;;;;;20.35;14.30;;;14.00;55.00;;;;;;4980489;28;20046;-43
2022/04/15 03:01:30;;;;;;;24.40;15.93;;;14.00;55.10;;;;;;4977573;28;20063;-43
2022/04/15 03:03:58;;;;;;;24.50;16.05;;;14.00;55.20;;;;;;4982926;28;20058;-43
2022/04/15 03:06:25;;;;;;;23.75;15.63;;;13.90;55.20;;;;;;4978528;28;20077;-44
2022/04/15 03:08:55;;;;;;;23.65;16.13;;;13.90;55.30;;;;;;4976302;28;20494;-43
2022/04/15 03:11:22;;;;;;;21.33;14.38;;;13.90;55.40;;;;;;4977856;28;20058;-42
2022/04/15 03:13:49;;;;;;;19.55;13.57;;;13.90;55.40;;;;;;4981369;28;20054;-43
2022/04/15 03:16:17;;;;;;;24.63;17.90;;;13.90;55.40;;;;;;4979041;28;20054;-44
2022/04/15 03:18:44;;;;;;;23.48;15.48;;;13.80;55.50;;;;;;4977979;28;20070;-46
2022/04/15 03:21:12;;;;;;;25.10;16.98;;;13.80;55.60;;;;;;4977977;28;20081;-44
2022/04/15 03:23:42;;;;;;;28.48;18.48;;;13.80;55.80;;;;;;4976234;28;20058;-46
2022/04/15 03:26:10;;;;;;;24.52;16.60;;;13.80;56.10;;;;;;4978849;28;20046;-43
2022/04/15 03:28:39;;;;;;;28.55;16.67;;;13.70;56.10;;;;;;4980143;28;20054;-43
2022/04/15 03:31:06;;;;;;;18.90;14.27;;;13.70;56.10;;;;;;4979027;28;20065;-46
2022/04/15 03:33:33;;;;;;;22.55;15.70;;;13.70;56.10;;;;;;4979020;28;20409;-44
2022/04/15 03:36:01;;;;;;;22.80;16.30;;;13.70;56.40;;;;;;4980079;28;20057;-44
2022/04/15 03:38:28;;;;;;;29.90;18.33;;;13.60;56.40;;;;;;4976721;28;20046;-43
2022/04/15 03:40:56;;;;;;;23.23;15.70;;;13.60;56.70;;;;;;4980021;28;20050;-43
2022/04/15 03:43:25;;;;;;;27.33;17.58;;;13.60;56.70;;;;;;4976901;28;20058;-44
2022/04/15 03:45:52;;;;;;;26.23;16.98;;;13.60;56.80;;;;;;4982152;28;20050;-43
2022/04/15 03:48:20;;;;;;;22.98;15.50;;;13.60;56.80;;;;;;4979319;28;20058;-46
2022/04/15 03:50:47;;;;;;;25.60;16.85;;;13.50;56.80;;;;;;4979324;28;20061;-44
2022/04/15 03:53:14;;;;;;;24.10;16.38;;;13.50;56.80;;;;;;4975943;28;20074;-44
2022/04/15 03:55:42;;;;;;;23.13;15.82;;;13.50;56.80;;;;;;4980911;28;20062;-43
2022/04/15 03:58:11;;;;;;;18.50;13.27;;;13.50;56.80;;;;;;4973935;28;20383;-43
2022/04/15 04:00:40;;;;;;;23.67;15.48;;;13.50;56.80;;;;;;4974928;28;20050;-43
2022/04/15 04:03:08;;;;;;;20.58;13.60;;;13.50;56.80;;;;;;4978679;28;20061;-44
2022/04/15 04:05:35;;;;;;;20.73;14.77;;;13.40;56.70;;;;;;4979244;28;20509;-45
2022/04/15 04:08:03;;;;;;;20.77;14.50;;;13.40;56.70;;;;;;4979726;28;20050;-44
2022/04/15 04:10:30;;;;;;;18.73;13.95;;;13.40;56.70;;;;;;4976605;28;20521;-44
2022/04/15 04:12:58;;;;;;;20.75;14.98;;;13.40;56.60;;;;;;4972037;28;20059;-44
2022/04/15 04:15:25;;;;;;;21.67;15.32;;;13.40;56.60;;;;;;4974257;28;20062;-44
2022/04/15 04:17:55;;;;;;;22.35;14.63;;;13.30;56.50;;;;;;4964324;28;20752;-43
2022/04/15 04:20:23;;;;;;;21.65;15.15;;;13.30;56.50;;;;;;4972985;28;20058;-44
2022/04/15 04:22:51;;;;;;;19.48;13.70;;;13.30;56.50;;;;;;4978103;28;20395;-44
2022/04/15 04:25:18;;;;;;;21.40;15.18;;;13.30;56.40;;;;;;4978229;28;20414;-44
2022/04/15 04:27:46;;;;;;;32.35;18.15;;;13.30;56.50;;;;;;4972896;28;20051;-43
2022/04/15 04:30:15;;;;;;;39.03;22.13;;;13.30;56.50;;;;;;4978314;28;20058;-43
2022/04/15 04:32:49;;;;;;;45.05;24.95;;;13.30;56.60;;;;;;4975490;28;20069;-43
2022/04/15 04:35:19;;;;;;;33.17;21.10;;;13.30;56.60;;;;;;4978307;28;20058;-44
2022/04/15 04:37:46;;;;;;;24.73;17.00;;;13.20;56.60;;;;;;4976475;28;20399;-46
2022/04/15 04:40:15;;;;;;;24.52;14.93;;;13.20;56.60;;;;;;4978368;28;20624;-44
2022/04/15 04:42:43;;;;;;;25.48;17.13;;;13.20;56.60;;;;;;4974821;28;20403;-43
2022/04/15 04:45:11;;;;;;;24.38;14.70;;;13.20;56.80;;;;;;4978387;28;20061;-48
2022/04/15 04:47:41;;;;;;;22.58;15.25;;;13.10;56.80;;;;;;4981663;28;20058;-43
2022/04/15 04:50:09;;;;;;;21.58;16.20;;;13.20;56.90;;;;;;4971769;28;20061;-44
2022/04/15 04:52:39;;;;;;;24.67;15.68;;;13.10;56.90;;;;;;4978014;28;20522;-43
2022/04/15 04:55:08;;;;;;;20.35;14.18;;;13.10;56.90;;;;;;4971225;28;20526;-43
2022/04/15 04:57:37;;;;;;;24.92;16.63;;;13.10;56.90;;;;;;4974855;28;20050;-45
2022/04/15 05:00:05;;;;;;;31.00;20.27;;;13.10;57.00;;;;;;4977989;28;20061;-44
2022/04/15 05:02:33;;;;;;;30.95;20.38;;;13.10;57.00;;;;;;4976370;28;20054;-44
2022/04/15 05:05:00;;;;;;;36.53;21.83;;;13.10;57.10;;;;;;4978322;28;20057;-44
2022/04/15 05:07:28;;;;;;;27.88;17.35;;;13.10;57.20;;;;;;4975331;28;20054;-44
2022/04/15 05:09:57;;;;;;;32.47;20.75;;;13.10;57.30;;;;;;4978236;28;20058;-43
2022/04/15 05:12:25;;;;;;;28.33;18.77;;;13.10;57.50;;;;;;4971474;28;20057;-44
2022/04/15 05:14:54;;;;;;;30.55;20.60;;;13.10;57.60;;;;;;4978099;28;20054;-44
2022/04/15 05:17:22;;;;;;;28.55;18.20;;;13.10;57.80;;;;;;4978222;28;20050;-43
2022/04/15 05:19:49;;;;;;;26.23;17.08;;;13.10;57.80;;;;;;4977772;28;20054;-43
2022/04/15 05:22:18;;;;;;;28.25;18.70;;;13.10;57.90;;;;;;4973828;28;20487;-44
2022/04/15 05:24:46;;;;;;;32.80;19.17;;;13.20;58.10;;;;;;4977523;28;20054;-44
2022/04/15 05:27:15;;;;;;;29.83;19.90;;;13.20;58.30;;;;;;4979619;28;20421;-46
2022/04/15 05:29:42;;;;;;;37.58;20.48;;;13.20;58.50;;;;;;4979699;28;20458;-43
2022/04/15 05:32:09;;;;;;;27.48;18.67;;;13.30;58.50;;;;;;4978742;28;20062;-43
2022/04/15 05:34:37;;;;;;;28.98;18.80;;;13.30;58.60;;;;;;4981080;28;20065;-43
2022/04/15 05:37:05;;;;;;;28.00;19.15;;;13.30;58.70;;;;;;4978154;28;20061;-43
2022/04/15 05:39:32;;;;;;;35.97;21.05;;;13.30;58.70;;;;;;4980030;28;20058;-44
2022/04/15 05:41:59;;;;;;;32.13;21.88;;;13.40;58.90;;;;;;4974447;28;20058;-43
2022/04/15 05:44:28;;;;;;;37.08;20.92;;;13.40;59.00;;;;;;4979521;28;20073;-43
2022/04/15 05:46:56;;;;;;;32.42;21.00;;;13.40;59.10;;;;;;4978509;28;20058;-44
2022/04/15 05:49:25;;;;;;;36.35;21.45;;;13.40;58.60;;;;;;4980233;28;20061;-44
2022/04/15 05:51:52;;;;;;;29.27;19.55;;;13.40;58.40;;;;;;4981323;28;20069;-43
2022/04/15 05:54:20;;;;;;;34.28;22.40;;;13.40;58.40;;;;;;4982597;28;20054;-44
2022/04/15 05:56:47;;;;;;;39.63;21.70;;;13.40;58.70;;;;;;4979999;28;20073;-44
2022/04/15 05:59:14;;;;;;;36.30;22.38;;;13.40;58.90;;;;;;4980278;28;20050;-43
2022/04/15 06:01:43;;;;;;;39.00;22.77;;;13.40;59.20;;;;;;4977584;28;20054;-46
2022/04/15 06:04:11;;;;;;;43.47;23.75;;;13.40;59.60;;;;;;4977900;28;20589;-43
2022/04/15 06:06:38;;;;;;;45.80;25.30;;;13.40;59.60;;;;;;4983998;28;20081;-43
2022/04/15 06:09:06;;;;;;;37.95;23.40;;;13.50;59.90;;;;;;4983493;28;20058;-45
2022/04/15 06:11:33;;;;;;;39.47;23.85;;;13.50;59.80;;;;;;4981423;28;20058;-43
2022/04/15 06:14:01;;;;;;;39.42;24.15;;;13.50;59.70;;;;;;4984501;28;20434;-43
2022/04/15 06:16:32;;;;;;;44.10;26.25;;;13.50;59.80;;;;;;4981313;28;20578;-43
2022/04/15 06:19:01;;;;;;;37.15;23.17;;;13.60;59.90;;;;;;4983240;28;20398;-45
2022/04/15 06:21:28;;;;;;;33.67;21.83;;;13.60;59.70;;;;;;4983852;28;20058;-43
2022/04/15 06:23:55;;;;;;;39.00;23.45;;;13.70;59.70;;;;;;4984387;28;20058;-44
2022/04/15 06:26:23;;;;;;;38.03;24.83;;;13.70;59.70;;;;;;4980491;28;20058;-44
2022/04/15 06:28:50;;;;;;;34.78;22.55;;;13.80;59.80;;;;;;4976892;28;20438;-43
2022/04/15 06:31:18;;;;;;;35.90;22.83;;;13.80;59.90;;;;;;4982394;28;20058;-44
2022/04/15 06:33:46;;;;;;;38.05;24.00;;;13.80;59.90;;;;;;4983625;28;20054;-43
2022/04/15 06:36:15;;;;;;;38.42;23.52;;;13.80;59.90;;;;;;4983257;28;20066;-43
2022/04/15 06:38:42;;;;;;;40.53;23.80;;;13.90;60.00;;;;;;4983752;28;20494;-43
2022/04/15 06:41:10;;;;;;;42.63;24.33;;;13.90;60.00;;;;;;4981418;28;20065;-43
2022/04/15 06:43:37;;;;;;;37.53;23.58;;;13.90;60.00;;;;;;4983152;28;20537;-43
2022/04/15 06:46:05;;;;;;;36.63;22.00;;;13.90;60.00;;;;;;4982241;28;20081;-43
2022/04/15 06:48:32;;;;;;;36.17;22.88;;;14.00;60.10;;;;;;4981684;28;20173;-43
2022/04/15 06:51:02;;;;;;;31.90;21.33;;;14.00;60.20;;;;;;4978969;28;20498;-44
2022/04/15 06:53:31;;;;;;;41.88;24.35;;;14.00;60.20;;;;;;4977153;28;20625;-44
2022/04/15 06:56:00;;;;;;;38.95;22.55;;;14.10;60.60;;;;;;4981872;28;20050;-43
2022/04/15 06:58:27;;;;;;;39.33;23.73;;;14.10;60.50;;;;;;4980277;28;20379;-44
2022/04/15 07:00:54;;;;;;;38.22;23.55;;;14.10;60.40;;;;;;4981267;28;20050;-44
2022/04/15 07:03:24;;;;;;;33.55;21.90;;;14.10;60.70;;;;;;4982394;28;20054;-46
2022/04/15 07:05:52;;;;;;;41.80;23.30;;;14.20;60.60;;;;;;4980860;28;20385;-43
2022/04/15 07:08:19;;;;;;;37.22;21.85;;;14.20;60.40;;;;;;4981211;28;20061;-44
2022/04/15 07:10:48;;;;;;;37.00;22.70;;;14.20;60.10;;;;;;4981483;28;20525;-43
2022/04/15 07:13:16;;;;;;;32.58;22.13;;;14.30;60.20;;;;;;4980405;28;20062;-43
2022/04/15 07:15:43;;;;;;;41.25;24.20;;;14.30;60.00;;;;;;4982843;28;20046;-43
2022/04/15 07:18:11;;;;;;;35.15;23.35;;;14.40;59.80;;;;;;4981963;28;20061;-46
2022/04/15 07:20:38;;;;;;;34.67;22.27;;;14.40;60.10;;;;;;4983604;28;20065;-44
2022/04/15 07:23:06;;;;;;;35.10;21.00;;;14.40;60.00;;;;;;4982400;28;20062;-44
2022/04/15 07:25:34;;;;;;;37.03;22.17;;;14.50;59.80;;;;;;4979626;28;20046;-44
2022/04/15 07:28:03;;;;;;;35.00;23.00;;;14.50;59.70;;;;;;4981689;28;20061;-43
2022/04/15 07:30:31;;;;;;;37.65;23.30;;;14.50;59.70;;;;;;4982426;28;20054;-43
2022/04/15 07:32:59;;;;;;;38.33;23.70;;;14.60;59.90;;;;;;4975770;28;20057;-46
2022/04/15 07:35:27;;;;;;;35.45;21.25;;;14.60;59.80;;;;;;4977434;28;20054;-43
2022/04/15 07:37:54;;;;;;;37.90;22.05;;;14.60;59.70;;;;;;4980120;28;20050;-45
2022/04/15 07:40:27;;;;;;;37.00;22.80;;;14.60;59.90;;;;;;4980692;28;20077;-43
2022/04/15 07:42:57;;;;;;;35.10;22.13;;;14.60;59.80;;;;;;4980554;28;20058;-43
2022/04/15 07:45:26;;;;;;;33.95;21.42;;;14.70;59.70;;;;;;4977751;28;20060;-44
2022/04/15 07:47:54;;;;;;;36.13;21.27;;;14.60;59.90;;;;;;4980806;28;20085;-43
2022/04/15 07:50:23;;;;;;;34.03;20.38;;;14.70;60.00;;;;;;4977293;28;20050;-43
2022/04/15 07:52:51;;;;;;;32.20;18.52;;;14.70;59.80;;;;;;4976618;28;20054;-44
2022/04/15 07:55:18;;;;;;;29.13;19.45;;;14.80;59.70;;;;;;4982162;28;20070;-43
2022/04/15 07:57:46;;;;;;;28.20;18.75;;;14.90;59.80;;;;;;4979327;28;20050;-43
2022/04/15 08:00:14;;;;;;;28.88;17.77;;;14.90;60.20;;;;;;4980873;28;20510;-43
2022/04/15 08:02:43;;;;;;;30.50;17.88;;;15.00;59.60;;;;;;4980471;28;20053;-45
2022/04/15 08:05:11;;;;;;;28.70;16.88;;;15.10;59.40;;;;;;4980416;28;20061;-44
2022/04/15 08:07:38;;;;;;;27.50;17.08;;;15.10;59.30;;;;;;4981160;28;20533;-44
2022/04/15 08:10:07;;;;;;;30.58;17.95;;;15.20;59.60;;;;;;4979887;28;20066;-46
2022/04/15 08:12:35;;;;;;;28.10;17.60;;;15.20;59.20;;;;;;4981033;28;20081;-43
2022/04/15 08:15:02;;;;;;;25.35;15.63;;;15.30;59.30;;;;;;4982042;28;20418;-44
2022/04/15 08:17:30;;;;;;;25.48;15.68;;;15.30;58.90;;;;;;4980087;28;20054;-43
2022/04/15 08:19:59;;;;;;;25.77;15.98;;;15.40;58.30;;;;;;4980910;28;20060;-43
2022/04/15 08:22:26;;;;;;;27.83;14.85;;;15.40;58.00;;;;;;4981028;28;20058;-44
2022/04/15 08:24:54;;;;;;;23.38;14.38;;;15.40;58.30;;;;;;4977083;28;20050;-47
2022/04/15 08:27:22;;;;;;;23.85;15.73;;;15.40;57.80;;;;;;4973862;28;20058;-44
2022/04/15 08:29:50;;;;;;;26.02;15.82;;;15.40;56.80;;;;;;4980032;28;20046;-43
2022/04/15 08:32:18;;;;;;;25.58;15.05;;;15.40;57.70;;;;;;4979209;28;20061;-43
2022/04/15 08:34:45;;;;;;;27.35;16.33;;;15.30;57.00;;;;;;4980664;28;20537;-46
2022/04/15 08:37:14;;;;;;;26.35;15.18;;;15.30;57.20;;;;;;4977826;28;20065;-44
2022/04/15 08:39:42;;;;;;;25.20;16.25;;;15.20;58.00;;;;;;4973175;28;20494;-43
2022/04/15 08:42:10;;;;;;;21.67;13.85;;;15.20;57.10;;;;;;4979177;28;20070;-43
2022/04/15 08:44:37;;;;;;;26.42;16.40;;;15.30;58.00;;;;;;4977828;28;20054;-48
2022/04/15 08:47:07;;;;;;;24.40;16.23;;;15.30;57.80;;;;;;4971373;28;20058;-43
2022/04/15 08:49:35;;;;;;;28.05;18.08;;;15.40;57.40;;;;;;4970966;28;20054;-43
2022/04/15 08:52:04;;;;;;;26.88;16.10;;;15.50;57.70;;;;;;4966213;28;20054;-44
2022/04/15 08:54:33;;;;;;;28.88;15.65;;;15.50;57.10;;;;;;4976619;28;20077;-43
2022/04/15 08:57:01;;;;;;;25.58;16.05;;;15.60;56.90;;;;;;4972937;28;20057;-44
2022/04/15 08:59:28;;;;;;;24.88;15.48;;;15.70;56.70;;;;;;4972200;28;20054;-43
2022/04/15 09:01:56;;;;;;;26.45;15.85;;;15.70;56.80;;;;;;4973156;28;20050;-45
2022/04/15 09:04:24;;;;;;;24.58;15.90;;;15.80;56.70;;;;;;4979316;28;20561;-44
2022/04/15 09:06:56;;;;;;;20.60;12.43;;;15.80;56.70;;;;;;4978129;28;20054;-43
2022/04/15 09:09:29;;;;;;;20.73;11.82;;;15.80;56.20;;;;;;4966945;28;20046;-44
2022/04/15 09:12:03;;;;;;;19.10;10.82;;;15.90;56.10;;;;;;4979932;28;20051;-44
2022/04/15 09:14:30;;;;;;;18.57;11.57;;;15.90;55.40;;;;;;4981728;28;20058;-44
2022/04/15 09:17:04;;;;;;;16.13;11.50;;;16.00;55.30;;;;;;4979791;28;20054;-44
2022/04/15 09:19:35;;;;;;;19.48;12.50;;;16.00;55.20;;;;;;4980469;28;20059;-43
2022/04/15 09:22:03;;;;;;;24.55;14.02;;;16.00;55.20;;;;;;4980421;28;20062;-43
2022/04/15 09:24:31;;;;;;;20.30;12.32;;;16.10;55.30;;;;;;4976869;28;20054;-44
2022/04/15 09:27:03;;;;;;;22.30;12.38;;;16.10;55.30;;;;;;4970638;28;20059;-44
2022/04/15 09:29:34;;;;;;;18.20;11.48;;;16.10;55.30;;;;;;4967841;28;20482;-45
2022/04/15 09:32:06;;;;;;;18.05;11.55;;;16.10;54.50;;;;;;4955120;28;20050;-43
2022/04/15 09:34:34;;;;;;;21.02;13.50;;;16.10;54.60;;;;;;4977155;28;20054;-44
2022/04/15 09:37:06;;;;;;;27.77;14.15;;;16.10;54.80;;;;;;4973846;28;20051;-44
2022/04/15 09:39:34;;;;;;;21.20;11.75;;;16.20;54.80;;;;;;4981147;28;20058;-43
2022/04/15 09:42:05;;;;;;;22.77;12.32;;;16.20;54.60;;;;;;4971903;28;20050;-43
2022/04/15 09:44:34;;;;;;;26.58;13.63;;;16.20;54.30;;;;;;4976919;28;20054;-44
2022/04/15 09:47:05;;;;;;;19.80;11.98;;;16.20;54.60;;;;;;4979381;28;20066;-43
2022/04/15 09:49:34;;;;;;;27.50;12.93;;;16.20;54.70;;;;;;4976566;28;20050;-43
2022/04/15 09:52:03;;;;;;;21.88;11.98;;;16.30;54.90;;;;;;4976396;28;20424;-44
2022/04/15 09:54:31;;;;;;;24.75;11.93;;;16.30;54.70;;;;;;4976642;28;20494;-43
2022/04/15 09:57:03;;;;;;;26.42;12.90;;;16.30;53.40;;;;;;4980491;28;20119;-43
2022/04/15 09:59:33;;;;;;;26.35;13.05;;;16.30;52.80;;;;;;4977721;28;20057;-43
2022/04/15 10:02:03;;;;;;;21.13;12.70;;;16.30;53.50;;;;;;4969908;28;20062;-43
2022/04/15 10:04:31;;;;;;;24.77;15.27;;;16.30;53.90;;;;;;4968578;28;20051;-44
2022/04/15 10:07:00;;;;;;;31.02;15.30;;;16.30;53.60;;;;;;4968567;28;20054;-46
2022/04/15 10:09:28;;;;;;;25.17;14.75;;;16.30;53.30;;;;;;4969212;28;20062;-43
2022/04/15 10:11:57;;;;;;;21.27;13.48;;;16.30;53.60;;;;;;4978659;28;20050;-43
2022/04/15 10:14:25;;;;;;;22.13;14.05;;;16.40;53.70;;;;;;4968378;28;20054;-45
2022/04/15 10:16:58;;;;;;;35.53;19.00;;;16.40;53.80;;;;;;4975002;28;20054;-43
2022/04/15 10:19:26;;;;;;;26.48;16.05;;;16.50;54.20;;;;;;4981320;28;20069;-43
2022/04/15 10:21:55;;;;;;;25.00;14.88;;;16.60;53.80;;;;;;4981915;28;20081;-43
2022/04/15 10:24:25;;;;;;;29.65;15.20;;;16.60;52.40;;;;;;4981215;28;20081;-44
2022/04/15 10:26:58;;;;;;;34.88;20.63;;;16.60;53.10;;;;;;4980276;28;20057;-43
2022/04/15 10:29:28;;;;;;;37.30;21.75;;;16.70;53.40;;;;;;4981464;28;20482;-44
2022/04/15 10:32:01;;;;;;;32.25;18.45;;;16.70;53.40;;;;;;4977365;28;22100;-45
2022/04/15 10:34:45;;;;;;;42.28;23.35;;;16.70;52.40;;;;;;4965100;28;20053;-45
2022/04/15 10:37:13;;;;;;;44.58;25.23;;;16.70;52.30;;;;;;4966635;28;20062;-42
2022/04/15 10:39:47;;;;;;;44.75;24.27;;;16.80;52.70;;;;;;4975026;28;20498;-47
2022/04/15 10:42:18;;;;;;;;;;;16.80;52.50;;;;;;4967737;28;20058;-43
2022/04/15 10:44:47;;;;;;;39.42;21.70;;;16.80;52.90;;;;;;4985261;28;20381;-44
2022/04/15 10:47:29;;;;;;;42.72;22.77;;;16.90;52.60;;;;;;4980806;28;20069;-44
2022/04/15 10:50:01;;;;;;;37.35;22.67;;;16.80;52.20;;;;;;4966098;28;20628;-44
2022/04/15 10:52:30;;;;;;;37.25;20.20;;;16.90;52.10;;;;;;4971353;28;20051;-43
2022/04/15 10:55:02;;;;;;;33.35;19.27;;;16.90;52.10;;;;;;4972659;28;20061;-43
2022/04/15 10:57:34;;;;;;;30.55;16.85;;;16.80;52.10;;;;;;4975161;28;20058;-47
2022/04/15 11:02:49;;;;;;;32.65;18.88;;;16.80;52.20;;;;;;4981134;28;20053;-43
2022/04/15 11:05:35;;;;;;;34.42;19.70;;;16.90;52.10;;;;;;4975641;28;20058;-44
2022/04/15 11:08:07;;;;;;;31.33;18.60;;;16.90;52.10;;;;;;4972721;28;20656;-43
2022/04/15 11:11:02;;;;;;;35.35;18.33;;;16.90;52.70;;;;;;4971542;28;20130;-43
2022/04/15 11:13:49;;;;;;;31.70;19.38;;;16.90;51.30;;;;;;4971108;28;20410;-43
2022/04/15 11:16:18;;;;;;;31.50;18.10;;;16.90;51.90;;;;;;4967022;28;20438;-44
2022/04/15 11:18:50;;;;;;;32.97;19.48;;;16.90;51.70;;;;;;4976859;28;20403;-43
2022/04/15 11:21:19;;;;;;;38.22;21.10;;;16.90;51.70;;;;;;4965564;28;20077;-44
2022/04/15 11:23:48;;;;;;;38.15;21.67;;;16.90;51.30;;;;;;4972374;28;20428;-45
2022/04/15 11:26:16;;;;;;;32.72;20.48;;;16.90;51.40;;;;;;4968836;28;20549;-43
2022/04/15 11:28:46;;;;;;;36.15;21.02;;;16.90;51.50;;;;;;4970839;28;20054;-44
2022/04/15 11:31:21;;;;;;;36.00;21.75;;;16.90;51.30;;;;;;4972014;28;20517;-43
2022/04/15 11:33:50;;;;;;;33.40;21.10;;;17.00;51.40;;;;;;4972800;28;20058;-44
2022/04/15 11:36:19;;;;;;;31.48;19.63;;;16.90;50.80;;;;;;4967878;28;20050;-44
2022/04/15 11:38:47;;;;;;;34.15;22.13;;;16.90;50.80;;;;;;4977793;28;20054;-45
2022/04/15 11:41:17;;;;;;;37.65;22.27;;;16.90;50.60;;;;;;4971527;28;20482;-44
2022/04/15 11:43:55;;;;;;;34.20;19.88;;;16.90;51.10;;;;;;4971180;28;20057;-48
2022/04/15 11:46:22;;;;;;;36.88;20.92;;;16.90;50.60;;;;;;4976969;28;20512;-43
2022/04/15 11:48:51;;;;;;;31.00;18.40;;;16.90;50.70;;;;;;4983120;28;20046;-43
2022/04/15 11:51:23;;;;;;;26.83;18.02;;;17.00;51.00;;;;;;4982244;28;20515;-43
2022/04/15 11:53:50;;;;;;;26.23;17.10;;;17.00;51.00;;;;;;4980546;28;20057;-43
2022/04/15 11:56:20;;;;;;;28.73;18.02;;;17.00;51.00;;;;;;4981287;28;20061;-43
2022/04/15 11:58:48;;;;;;;29.50;17.60;;;17.10;50.80;;;;;;4982236;28;20422;-43
2022/04/15 12:01:31;;;;;;;29.38;17.70;;;17.20;50.80;;;;;;4983521;28;20061;-42
2022/04/15 12:04:00;;;;;;;24.85;16.98;;;17.20;50.40;;;;;;4980781;28;20062;-43
2022/04/15 12:06:29;;;;;;;23.90;16.63;;;17.30;50.30;;;;;;4974673;28;20629;-43
2022/04/15 12:08:57;;;;;;;21.92;15.02;;;17.40;50.60;;;;;;4971679;28;20055;-42
2022/04/15 12:11:26;;;;;;;26.25;17.30;;;17.40;50.20;;;;;;4970639;28;20060;-43
2022/04/15 12:13:57;;;;;;;21.60;14.40;;;17.40;49.40;;;;;;4972159;28;20057;-46
2022/04/15 12:16:25;;;;;;;18.48;12.18;;;17.50;49.70;;;;;;4973458;28;20061;-44
2022/04/15 12:18:54;;;;;;;17.98;13.00;;;17.60;48.70;;;;;;4978666;28;20061;-43
2022/04/15 12:21:23;;;;;;;19.73;14.52;;;17.60;49.00;;;;;;4979598;28;20399;-43
2022/04/15 12:24:04;;;;;;;22.58;15.77;;;17.60;48.80;;;;;;4975334;28;20061;-43
2022/04/15 12:26:45;;;;;;;14.82;9.68;;;17.70;48.90;;;;;;4978168;28;20058;-43
2022/04/15 12:32:15;;;;;;;15.52;9.68;;;17.70;48.40;;;;;;4982535;28;20061;-43
2022/04/15 12:34:43;;;;;;;20.63;10.52;;;17.80;48.40;;;;;;4969640;28;20055;-43
2022/04/15 12:37:34;;;;;;;14.10;10.10;;;17.70;48.20;;;;;;4972542;28;20069;-43
2022/04/15 12:40:04;;;;;;;14.60;9.43;;;17.80;48.20;;;;;;4978645;28;20054;-43
2022/04/15 12:42:33;;;;;;;17.00;11.40;;;17.70;47.80;;;;;;4979520;28;20054;-43